Time;durP1;ratioP1;P1;durP2;ratioP2;P2;SDS_P1;SDS_P2;PMS_P1;PMS_P2;Temp;Humidity;BMP_temperature;BMP_pressure;BME280_temperature;BME280_humidity;BME280_pressure;Samples;Min_cycle;Max_cycle;Signal;HPM_P1;HPM_P2
2022/08/27 00:02:23;;;;;;;4.13;2.60;;;;;;;23.85;61.45;101127.31;4956008;28;100797;-50
2022/08/27 00:04:49;;;;;;;4.10;2.80;;;;;;;23.84;61.46;101126.56;4948653;28;97505;-49
2022/08/27 00:07:14;;;;;;;4.70;2.43;;;;;;;23.81;61.75;101122.09;4946474;28;97050;-47
2022/08/27 00:09:40;;;;;;;6.80;3.00;;;;;;;23.82;61.42;101125.63;4949363;28;97081;-47
2022/08/27 00:12:07;;;;;;;6.10;2.80;;;;;;;23.81;61.34;101119.28;4942294;28;100302;-48
2022/08/27 00:14:33;;;;;;;5.17;3.27;;;;;;;23.77;61.15;101129.41;4944890;28;97377;-48
2022/08/27 00:16:58;;;;;;;5.47;3.00;;;;;;;23.72;61.26;101121.97;4949158;28;96945;-48
2022/08/27 00:19:24;;;;;;;6.07;2.80;;;;;;;23.70;61.58;101121.78;4952870;28;97878;-48
2022/08/27 00:21:50;;;;;;;6.47;2.77;;;;;;;23.65;61.46;101131.97;4955264;28;97401;-49
2022/08/27 00:24:15;;;;;;;8.30;2.83;;;;;;;23.63;61.38;101125.41;4950746;28;97037;-50
2022/08/27 00:26:41;;;;;;;4.50;2.80;;;;;;;23.61;61.44;101119.63;4955712;28;97036;-47
2022/08/27 00:29:07;;;;;;;6.53;2.80;;;;;;;23.60;61.57;101126.56;4949496;28;96924;-50
2022/08/27 00:31:33;;;;;;;4.67;2.80;;;;;;;23.56;61.73;101112.91;4947745;28;96844;-48
2022/08/27 00:33:59;;;;;;;3.37;2.50;;;;;;;23.59;61.63;101122.28;4942802;28;97569;-48
2022/08/27 00:36:24;;;;;;;4.73;2.93;;;;;;;23.56;61.84;101115.72;4945966;28;97242;-50
2022/08/27 00:38:50;;;;;;;4.80;2.30;;;;;;;23.57;61.47;101111.59;4947803;28;97416;-49
2022/08/27 00:41:17;;;;;;;3.37;2.60;;;;;;;23.50;61.45;101112.38;4947186;28;97284;-48
2022/08/27 00:43:45;;;;;;;3.40;2.67;;;;;;;23.46;61.57;101112.03;4954892;28;97979;-48
2022/08/27 00:46:19;;;;;;;3.30;3.00;;;;;;;23.45;62.02;101113.38;4949703;28;97017;-47
2022/08/27 00:48:46;;;;;;;6.50;2.87;;;;;;;23.45;61.84;101112.63;4943518;28;96924;-50
2022/08/27 00:51:12;;;;;;;6.87;2.50;;;;;;;23.45;61.55;101115.41;4944035;28;102196;-49
2022/08/27 00:53:38;;;;;;;5.90;3.30;;;;;;;23.44;61.72;101109.06;4938677;28;97048;-50
2022/08/27 00:56:07;;;;;;;6.60;2.70;;;;;;;23.44;61.80;101113.91;4943381;28;96827;-50
2022/08/27 00:58:39;;;;;;;5.10;3.33;;;;;;;23.47;61.73;101118.41;4945563;28;97213;-50
2022/08/27 01:01:08;;;;;;;4.27;2.40;;;;;;;23.47;61.59;101124.03;4947463;28;97241;-49
2022/08/27 01:03:34;;;;;;;2.70;2.50;;;;;;;23.44;61.44;101120.28;4942210;28;96826;-49
2022/08/27 01:06:01;;;;;;;4.83;2.90;;;;;;;23.43;61.49;101121.63;4945822;28;97193;-48
2022/08/27 01:08:30;;;;;;;5.80;2.70;;;;;;;23.39;61.39;101128.94;4949109;28;97577;-48
2022/08/27 01:10:58;;;;;;;4.23;3.10;;;;;;;23.38;61.73;101127.44;4944451;28;97596;-47
2022/08/27 01:13:26;;;;;;;3.67;2.33;;;;;;;23.39;61.55;101134.56;4941638;28;97827;-48
2022/08/27 01:15:57;;;;;;;7.90;3.10;;;;;;;23.39;61.89;101132.50;4931567;28;97128;-49
2022/08/27 01:18:28;;;;;;;2.53;2.33;;;;;;;23.40;61.65;101145.22;4947705;28;96887;-50
2022/08/27 01:21:04;;;;;;;3.80;2.83;;;;;;;23.41;62.03;101132.69;4947317;28;97195;-49
2022/08/27 01:23:36;;;;;;;7.20;2.80;;;;;;;23.38;61.82;101142.25;4953198;28;97209;-48
2022/08/27 01:26:05;;;;;;;4.03;2.70;;;;;;;23.39;61.65;101140.19;4950750;28;97549;-48
2022/08/27 01:28:32;;;;;;;5.80;2.80;;;;;;;23.38;61.58;101133.81;4944774;28;97569;-49
2022/08/27 01:30:58;;;;;;;4.07;2.40;;;;;;;23.39;61.85;101143.00;4939084;28;97079;-48
2022/08/27 01:33:23;;;;;;;4.40;2.97;;;;;;;23.38;61.79;101149.91;4940093;28;97304;-48
2022/08/27 01:35:51;;;;;;;4.43;3.10;;;;;;;23.35;61.80;101145.44;4937430;28;96869;-49
2022/08/27 01:38:19;;;;;;;9.10;3.00;;;;;;;23.34;61.60;101143.94;4952859;28;97095;-50
2022/08/27 01:40:45;;;;;;;10.07;2.90;;;;;;;23.31;61.61;101151.41;4947940;28;99704;-50
2022/08/27 01:43:10;;;;;;;11.57;3.40;;;;;;;23.29;61.88;101151.25;4950411;28;97316;-48
2022/08/27 01:45:38;;;;;;;6.60;3.00;;;;;;;23.29;61.96;101151.25;4950202;28;97312;-48
2022/08/27 01:48:06;;;;;;;6.60;3.10;;;;;;;23.27;61.94;101145.44;4944104;28;97029;-47
2022/08/27 01:50:37;;;;;;;7.37;3.20;;;;;;;23.26;61.81;101154.44;4943132;28;98779;-49
2022/08/27 01:53:12;;;;;;;4.17;2.70;;;;;;;23.24;62.16;101148.66;4944231;28;97003;-49
2022/08/27 01:55:38;;;;;;;5.80;2.80;;;;;;;23.20;61.68;101154.66;4943637;28;97053;-48
2022/08/27 01:58:04;;;;;;;7.20;3.03;;;;;;;23.18;61.78;101156.53;4946865;28;97297;-48
2022/08/27 02:00:35;;;;;;;3.53;2.73;;;;;;;23.16;61.88;101156.34;4948419;28;97384;-51
2022/08/27 02:03:01;;;;;;;3.80;2.80;;;;;;;23.15;61.96;101161.25;4945641;28;97238;-48
2022/08/27 02:05:28;;;;;;;7.30;3.40;;;;;;;23.16;61.89;101164.78;4944013;28;97078;-49
2022/08/27 02:07:54;;;;;;;6.13;2.83;;;;;;;23.14;62.00;101168.16;4953081;28;97974;-50
2022/08/27 02:10:24;;;;;;;7.63;3.60;;;;;;;23.13;61.92;101167.41;4940717;28;96953;-49
2022/08/27 02:12:49;;;;;;;6.20;3.10;;;;;;;23.11;61.83;101160.88;4939198;28;99936;-49
2022/08/27 02:15:15;;;;;;;6.10;3.23;;;;;;;23.09;61.90;101167.06;4941374;28;97126;-49
2022/08/27 02:17:41;;;;;;;4.37;3.30;;;;;;;23.04;61.85;101164.47;4943837;28;97386;-49
2022/08/27 02:20:09;;;;;;;6.63;2.73;;;;;;;22.98;62.16;101159.06;4943626;28;97326;-50
2022/08/27 02:22:35;;;;;;;8.57;2.67;;;;;;;22.96;61.96;101160.94;4949520;28;97361;-50
2022/08/27 02:25:01;;;;;;;5.33;2.83;;;;;;;22.94;62.10;101160.75;4948094;28;97182;-51
2022/08/27 02:27:26;;;;;;;4.20;3.00;;;;;;;22.92;62.18;101161.34;4946838;28;97445;-48
2022/08/27 02:29:52;;;;;;;3.50;2.60;;;;;;;22.92;62.18;101154.97;4947826;28;97206;-49
2022/08/27 02:32:18;;;;;;;4.03;3.40;;;;;;;22.89;62.00;101156.13;4942787;28;96983;-50
2022/08/27 02:34:44;;;;;;;6.83;3.30;;;;;;;22.88;62.06;101154.63;4944079;28;97019;-47
2022/08/27 02:37:09;;;;;;;4.17;2.77;;;;;;;22.85;62.29;101166.97;4951063;28;97282;-49
2022/08/27 02:39:35;;;;;;;5.50;3.27;;;;;;;22.83;62.29;101155.56;4952053;28;96642;-49
2022/08/27 02:42:00;;;;;;;6.27;3.50;;;;;;;22.82;62.23;101157.63;4952994;28;97218;-50
2022/08/27 02:44:26;;;;;;;6.20;3.40;;;;;;;22.81;62.19;101161.75;4958963;28;97334;-50
2022/08/27 02:46:52;;;;;;;4.63;2.53;;;;;;;22.82;62.22;101160.44;4952547;28;98339;-49
2022/08/27 02:49:17;;;;;;;5.47;3.57;;;;;;;22.77;62.26;101160.63;4950196;28;97773;-50
2022/08/27 02:51:43;;;;;;;6.70;3.53;;;;;;;22.73;62.21;101161.03;4941725;28;96758;-48
2022/08/27 02:54:09;;;;;;;6.50;3.53;;;;;;;22.73;62.28;101168.69;4940984;28;96745;-52
2022/08/27 02:56:34;;;;;;;5.07;3.17;;;;;;;22.74;62.24;101168.13;4954498;28;97208;-50
2022/08/27 02:59:00;;;;;;;8.50;3.73;;;;;;;22.73;62.23;101172.25;4949989;28;96762;-49
2022/08/27 03:01:25;;;;;;;3.10;2.37;;;;;;;22.74;62.19;101159.69;4948240;28;96981;-50
2022/08/27 03:03:51;;;;;;;9.33;3.00;;;;;;;22.74;62.34;101156.91;4944112;28;97835;-50
2022/08/27 03:06:17;;;;;;;3.40;3.10;;;;;;;22.77;62.25;101166.25;4944968;28;97594;-48
2022/08/27 03:08:42;;;;;;;3.47;2.50;;;;;;;22.78;62.08;101162.13;4943852;28;97466;-49
2022/08/27 03:11:07;;;;;;;3.50;2.77;;;;;;;22.78;62.31;101173.34;4944403;28;96789;-50
2022/08/27 03:13:39;;;;;;;5.00;2.80;;;;;;;22.78;62.28;101167.75;4939858;28;97461;-48
2022/08/27 03:16:06;;;;;;;5.47;2.57;;;;;;;22.75;62.24;101161.19;4944738;28;97040;-48
2022/08/27 03:18:32;;;;;;;6.00;3.40;;;;;;;22.76;62.09;101164.75;4950096;28;98607;-48
2022/08/27 03:20:59;;;;;;;5.03;3.13;;;;;;;22.79;62.12;101160.81;4956829;28;97023;-48
2022/08/27 03:23:26;;;;;;;3.20;2.67;;;;;;;22.80;62.19;101159.50;4951335;28;97095;-48
2022/08/27 03:25:55;;;;;;;4.90;2.70;;;;;;;22.83;62.06;101152.75;4948236;28;97228;-51
2022/08/27 03:28:26;;;;;;;5.13;2.87;;;;;;;22.85;62.23;101152.94;4951471;28;96981;-49
2022/08/27 03:30:57;;;;;;;2.90;2.70;;;;;;;22.85;62.09;101152.94;4944080;28;96927;-48
2022/08/27 03:33:22;;;;;;;8.33;3.00;;;;;;;22.87;62.09;101155.91;4942006;28;97147;-48
2022/08/27 03:35:48;;;;;;;2.93;2.60;;;;;;;22.89;62.17;101156.84;4944187;28;97111;-49
2022/08/27 03:38:14;;;;;;;5.33;3.00;;;;;;;22.91;62.12;101150.69;4944653;28;96807;-52
2022/08/27 03:40:40;;;;;;;3.37;2.83;;;;;;;22.90;62.19;101152.72;4951252;28;97052;-49
2022/08/27 03:43:06;;;;;;;4.53;2.70;;;;;;;22.91;62.33;101145.78;4957129;28;97406;-48
2022/08/27 03:45:31;;;;;;;2.57;2.33;;;;;;;22.91;62.29;101139.47;4956846;28;96959;-48
2022/08/27 03:47:56;;;;;;;5.40;3.20;;;;;;;22.91;62.05;101145.78;4951487;28;97401;-50
2022/08/27 03:50:22;;;;;;;3.83;2.30;;;;;;;22.88;62.17;101143.38;4938659;28;98283;-49
2022/08/27 03:52:48;;;;;;;2.80;2.53;;;;;;;22.86;62.12;101141.16;4944042;28;96989;-50
2022/08/27 03:55:13;;;;;;;3.23;2.20;;;;;;;22.86;62.02;101141.16;4946582;28;96902;-49
2022/08/27 03:57:39;;;;;;;3.07;2.77;;;;;;;22.90;62.06;101144.31;4949722;28;103132;-49
2022/08/27 04:00:11;;;;;;;2.90;2.67;;;;;;;22.88;62.07;101149.00;4951625;28;98441;-48
2022/08/27 04:02:37;;;;;;;2.83;2.50;;;;;;;22.86;62.10;101140.41;4948539;28;97072;-49
2022/08/27 04:05:03;;;;;;;4.37;3.00;;;;;;;22.87;62.22;101142.63;4955167;28;96817;-48
2022/08/27 04:07:28;;;;;;;3.07;2.30;;;;;;;22.88;62.03;101144.13;4945850;28;97775;-48
2022/08/27 04:09:54;;;;;;;2.57;2.37;;;;;;;22.87;62.11;101141.88;4946292;28;97268;-49
2022/08/27 04:12:19;;;;;;;7.20;3.47;;;;;;;22.84;62.29;101140.22;4945508;28;97107;-48
2022/08/27 04:14:44;;;;;;;2.77;2.47;;;;;;;22.81;62.32;101142.09;4955607;28;97232;-48
2022/08/27 04:17:10;;;;;;;3.93;2.70;;;;;;;22.81;62.17;101147.72;4953234;28;99216;-49
2022/08/27 04:19:35;;;;;;;5.17;2.53;;;;;;;22.78;62.28;101145.31;4945755;28;97751;-49
2022/08/27 04:22:04;;;;;;;7.97;2.90;;;;;;;22.76;62.26;101143.03;4950216;28;96801;-48
2022/08/27 04:24:31;;;;;;;2.40;1.90;;;;;;;22.74;62.11;101142.09;4935483;28;97442;-48
2022/08/27 04:26:58;;;;;;;3.00;2.03;;;;;;;22.72;62.06;101148.28;4952943;28;96799;-48
2022/08/27 04:29:23;;;;;;;6.80;1.90;;;;;;;22.73;62.10;101149.06;4938562;28;97318;-49
2022/08/27 04:31:49;;;;;;;3.17;2.47;;;;;;;22.71;62.31;101148.88;4939495;28;96728;-48
2022/08/27 04:34:15;;;;;;;4.43;2.27;;;;;;;22.70;62.44;101152.97;4943497;28;97263;-52
2022/08/27 04:36:41;;;;;;;3.13;1.77;;;;;;;22.69;62.28;101151.50;4945931;28;96941;-47
2022/08/27 04:39:06;;;;;;;5.63;1.97;;;;;;;22.69;62.21;101152.25;4949005;28;98363;-48
2022/08/27 04:41:32;;;;;;;2.10;1.93;;;;;;;22.71;62.27;101163.66;4951797;28;97242;-48
2022/08/27 04:44:03;;;;;;;2.67;2.00;;;;;;;22.73;62.36;101160.28;4949732;28;96887;-48
2022/08/27 04:46:30;;;;;;;3.00;2.37;;;;;;;22.69;62.21;101160.66;4946952;28;99407;-48
2022/08/27 04:48:58;;;;;;;5.43;1.97;;;;;;;22.67;62.03;101162.53;4951033;28;97292;-47
2022/08/27 04:51:24;;;;;;;2.47;2.00;;;;;;;22.69;62.18;101165.53;4938056;28;96997;-51
2022/08/27 04:53:50;;;;;;;3.80;1.83;;;;;;;22.71;62.28;101163.66;4946233;28;96993;-49
2022/08/27 04:56:20;;;;;;;2.03;1.93;;;;;;;22.73;62.29;101172.25;4953599;28;98023;-48
2022/08/27 04:58:46;;;;;;;2.90;1.73;;;;;;;22.72;62.10;101175.59;4953654;28;98754;-50
2022/08/27 05:01:20;;;;;;;3.20;2.20;;;;;;;22.72;62.06;101170.75;4953778;28;96964;-48
2022/08/27 05:03:46;;;;;;;2.00;1.67;;;;;;;22.71;62.17;101176.94;4951997;28;96960;-50
2022/08/27 05:06:12;;;;;;;4.70;2.13;;;;;;;22.70;62.11;101173.38;4946345;28;97325;-47
2022/08/27 05:08:38;;;;;;;2.60;2.27;;;;;;;22.72;62.19;101175.59;4949333;28;97365;-48
2022/08/27 05:11:07;;;;;;;4.77;2.63;;;;;;;22.73;62.37;101174.31;4938910;28;97104;-48
2022/08/27 05:13:32;;;;;;;2.50;1.90;;;;;;;22.73;62.16;101177.84;4938848;28;97556;-50
2022/08/27 05:16:07;;;;;;;2.20;2.10;;;;;;;22.75;62.33;101180.09;4943422;28;110145;-48
2022/08/27 05:18:34;;;;;;;2.93;1.97;;;;;;;22.75;62.05;101180.09;4951301;28;97328;-49
2022/08/27 05:21:00;;;;;;;7.20;2.50;;;;;;;22.77;62.08;101183.06;4944334;28;96898;-49
2022/08/27 05:23:28;;;;;;;2.27;1.93;;;;;;;22.78;62.16;101181.78;4951962;28;96954;-52
2022/08/27 05:25:55;;;;;;;3.10;2.10;;;;;;;22.78;62.20;101173.34;4942939;28;97939;-48
2022/08/27 05:28:23;;;;;;;2.77;2.10;;;;;;;22.81;62.20;101180.63;4940216;28;97386;-48
2022/08/27 05:30:52;;;;;;;3.77;2.10;;;;;;;22.83;62.04;101172.38;4943686;28;96880;-48
2022/08/27 05:33:20;;;;;;;1.90;1.77;;;;;;;22.85;62.04;101172.56;4949627;28;98444;-47
2022/08/27 05:35:49;;;;;;;3.63;1.70;;;;;;;22.84;61.85;101171.09;4950155;28;97025;-47
2022/08/27 05:38:17;;;;;;;2.13;1.53;;;;;;;22.86;61.80;101171.28;4947688;28;97634;-48
2022/08/27 05:40:43;;;;;;;2.47;1.90;;;;;;;22.84;61.89;101171.84;4952838;28;97089;-48
2022/08/27 05:43:11;;;;;;;2.97;2.10;;;;;;;22.86;61.98;101171.28;4946840;28;96860;-48
2022/08/27 05:45:46;;;;;;;2.73;1.70;;;;;;;22.86;61.83;101168.47;4950136;28;97343;-50
2022/08/27 05:48:13;;;;;;;3.27;1.93;;;;;;;22.83;62.05;101175.19;4943471;28;98447;-51
2022/08/27 05:50:39;;;;;;;2.63;1.73;;;;;;;22.82;62.03;101170.91;4947424;28;96837;-50
2022/08/27 05:53:06;;;;;;;4.27;1.90;;;;;;;22.84;61.92;101168.28;4940542;28;97284;-48
2022/08/27 05:55:43;;;;;;;1.97;1.70;;;;;;;22.83;62.29;101173.16;4941742;28;98044;-50
2022/08/27 06:01:03;;;;;;;2.77;1.80;;;;;;;22.84;61.98;101165.47;4945315;28;102249;-49
2022/08/27 06:01:05;;;;;;;1.70;1.60;;;;;;;22.86;61.95;101169.22;4947908;28;96929;-50
2022/08/27 06:03:32;;;;;;;2.87;1.87;;;;;;;22.84;61.94;101169.03;4955395;28;97128;-48
2022/08/27 06:06:07;;;;;;;3.37;2.10;;;;;;;22.87;61.89;101167.88;4943526;28;97514;-49
2022/08/27 06:08:33;;;;;;;6.50;2.20;;;;;;;22.88;61.99;101171.44;4934929;28;97656;-48
2022/08/27 06:11:00;;;;;;;2.67;2.20;;;;;;;22.90;61.75;101168.81;4940087;28;97399;-49
2022/08/27 06:13:27;;;;;;;3.13;1.80;;;;;;;22.90;61.81;101175.19;4944089;28;97106;-50
2022/08/27 06:16:04;;;;;;;2.27;1.80;;;;;;;22.90;61.99;101166.00;4944743;28;96775;-48
2022/08/27 06:18:30;;;;;;;4.03;2.30;;;;;;;22.90;61.94;101163.97;4953637;28;101467;-48
2022/08/27 06:20:56;;;;;;;2.70;2.10;;;;;;;22.91;61.92;101175.94;4953471;28;96778;-48
2022/08/27 06:23:22;;;;;;;2.20;1.80;;;;;;;22.94;61.78;101175.53;4956352;28;97003;-50
2022/08/27 06:25:48;;;;;;;6.93;2.30;;;;;;;22.92;61.61;101180.22;4953477;28;97192;-48
2022/08/27 06:28:13;;;;;;;3.37;2.20;;;;;;;22.91;61.65;101181.56;4945028;28;97300;-48
2022/08/27 06:30:39;;;;;;;2.50;2.30;;;;;;;22.92;61.96;101183.03;4945847;28;97108;-51
2022/08/27 06:33:04;;;;;;;3.63;2.00;;;;;;;22.92;61.72;101177.41;4950816;28;97856;-48
2022/08/27 06:35:30;;;;;;;2.90;1.80;;;;;;;22.91;61.69;101181.56;4959162;28;97392;-49
2022/08/27 06:37:55;;;;;;;4.40;2.27;;;;;;;22.95;61.74;101187.53;4951909;28;98316;-48
2022/08/27 06:40:21;;;;;;;1.87;1.60;;;;;;;22.95;61.84;101182.66;4953779;28;97355;-48
2022/08/27 06:42:47;;;;;;;3.00;1.70;;;;;;;22.97;61.79;101180.03;4946094;28;97452;-48
2022/08/27 06:45:13;;;;;;;3.87;2.30;;;;;;;22.97;61.68;101179.28;4944952;28;98588;-48
2022/08/27 06:47:38;;;;;;;1.90;1.77;;;;;;;22.97;61.87;101185.66;4946543;28;98156;-49
2022/08/27 06:50:04;;;;;;;5.13;1.70;;;;;;;22.99;61.63;101190.69;4940676;28;106621;-49
2022/08/27 06:52:29;;;;;;;3.90;2.30;;;;;;;22.99;61.74;101188.63;4948344;28;96867;-48
2022/08/27 06:54:54;;;;;;;1.93;1.60;;;;;;;22.99;61.62;101191.44;4947152;28;97326;-51
2022/08/27 06:57:21;;;;;;;3.40;2.00;;;;;;;23.01;61.64;101197.22;4950249;28;97062;-47
2022/08/27 06:59:47;;;;;;;4.20;2.10;;;;;;;23.03;61.64;101199.47;4954680;28;97749;-53
2022/08/27 07:02:13;;;;;;;2.70;2.20;;;;;;;23.03;61.63;101202.25;4946055;28;97137;-50
2022/08/27 07:04:38;;;;;;;2.87;1.97;;;;;;;23.05;61.56;101205.25;4948680;28;98305;-49
2022/08/27 07:07:04;;;;;;;3.20;1.90;;;;;;;23.07;61.63;101205.44;4950370;28;97057;-48
2022/08/27 07:09:31;;;;;;;4.00;2.10;;;;;;;23.07;61.53;101206.19;4950358;28;97110;-48
2022/08/27 07:11:57;;;;;;;3.23;1.90;;;;;;;23.09;61.59;101202.81;4944205;28;96722;-48
2022/08/27 07:14:23;;;;;;;3.33;1.57;;;;;;;23.09;61.36;101197.19;4943858;28;98628;-49
2022/08/27 07:16:49;;;;;;;5.23;2.07;;;;;;;23.09;61.24;101205.59;4958822;28;96796;-48
2022/08/27 07:19:15;;;;;;;3.67;2.30;;;;;;;23.10;61.34;101207.13;4951947;28;96833;-48
2022/08/27 07:21:40;;;;;;;3.53;1.73;;;;;;;23.11;61.30;101209.34;4957101;28;97139;-48
2022/08/27 07:24:07;;;;;;;5.27;2.50;;;;;;;23.12;61.10;101212.91;4949238;28;102817;-47
2022/08/27 07:26:35;;;;;;;2.70;2.00;;;;;;;23.15;61.23;101225.81;4955490;28;97063;-48
2022/08/27 07:29:03;;;;;;;3.07;1.90;;;;;;;23.15;61.13;101211.03;4945748;28;96877;-48
2022/08/27 07:31:29;;;;;;;1.77;1.67;;;;;;;23.15;61.28;101208.22;4942080;28;97429;-50
2022/08/27 07:33:55;;;;;;;3.33;1.87;;;;;;;23.13;61.18;101209.53;4945015;28;97591;-49
2022/08/27 07:36:22;;;;;;;2.70;2.03;;;;;;;23.17;61.05;101214.75;4949230;28;98580;-48
2022/08/27 07:38:48;;;;;;;6.10;1.93;;;;;;;23.20;61.15;101212.88;4956527;28;96827;-51
2022/08/27 07:41:13;;;;;;;3.03;1.80;;;;;;;23.24;61.05;101213.25;4949702;28;96843;-48
2022/08/27 07:46:24;;;;;;;4.30;2.03;;;;;;;23.27;61.03;101212.84;4944537;28;100081;-50
2022/08/27 07:48:51;;;;;;;1.93;1.63;;;;;;;23.32;60.89;101213.94;4937688;28;99316;-52
2022/08/27 07:51:19;;;;;;;5.40;1.70;;;;;;;23.31;60.72;101218.81;4942323;28;97457;-48
2022/08/27 07:53:45;;;;;;;3.63;1.70;;;;;;;23.32;61.00;101223.13;4947658;28;97673;-47
2022/08/27 07:56:11;;;;;;;2.63;1.97;;;;;;;23.35;60.91;101224.81;4945994;28;97216;-51
2022/08/27 07:58:37;;;;;;;1.60;1.50;;;;;;;23.40;61.03;101211.88;4947808;28;97630;-48
2022/08/27 08:01:02;;;;;;;3.43;2.30;;;;;;;23.46;60.84;101218.03;4953585;28;97396;-49
2022/08/27 08:03:29;;;;;;;3.77;1.80;;;;;;;23.44;60.77;101221.41;4944509;28;97253;-48
2022/08/27 08:05:56;;;;;;;3.57;1.70;;;;;;;23.46;60.58;101223.66;4947293;28;97128;-48
2022/08/27 08:08:22;;;;;;;6.63;2.00;;;;;;;23.45;60.60;101222.16;4947585;28;97360;-48
2022/08/27 08:10:48;;;;;;;1.80;1.40;;;;;;;23.43;60.64;101221.97;4945080;28;96770;-48
2022/08/27 08:13:16;;;;;;;2.13;1.70;;;;;;;23.43;60.53;101230.41;4940979;28;98698;-49
2022/08/27 08:15:45;;;;;;;1.73;1.57;;;;;;;23.41;60.55;101228.16;4946681;28;97334;-49
2022/08/27 08:18:12;;;;;;;2.10;1.93;;;;;;;23.41;60.61;101233.03;4943542;28;97059;-48
2022/08/27 08:20:38;;;;;;;2.23;1.90;;;;;;;23.44;60.70;101235.44;4942116;28;97400;-48
2022/08/27 08:23:03;;;;;;;4.93;2.17;;;;;;;23.43;60.51;101236.03;4953110;28;97213;-49
2022/08/27 08:25:29;;;;;;;4.13;1.90;;;;;;;23.41;60.69;101239.41;4946574;28;97102;-48
2022/08/27 08:27:54;;;;;;;2.73;1.93;;;;;;;23.45;60.36;101245.38;4946729;28;96849;-48
2022/08/27 08:30:21;;;;;;;2.10;1.80;;;;;;;23.46;60.50;101240.50;4944370;28;96999;-49
2022/08/27 08:32:46;;;;;;;2.93;2.00;;;;;;;23.45;60.36;101251.00;4945211;28;97055;-49
2022/08/27 08:35:12;;;;;;;2.07;1.83;;;;;;;23.45;60.34;101253.81;4946347;28;98680;-48
2022/08/27 08:37:37;;;;;;;2.67;2.00;;;;;;;23.45;60.21;101256.63;4947488;28;99747;-48
2022/08/27 08:40:04;;;;;;;1.77;1.67;;;;;;;23.47;60.17;101264.47;4949667;28;96715;-49
2022/08/27 08:42:38;;;;;;;2.47;1.63;;;;;;;23.49;60.02;101262.59;4950176;28;97750;-49
2022/08/27 08:45:05;;;;;;;4.77;2.20;;;;;;;23.47;60.18;101261.66;4957144;28;101434;-47
2022/08/27 08:47:45;;;;;;;5.63;1.90;;;;;;;23.44;59.75;101265.59;4941800;28;96780;-48
2022/08/27 08:50:16;;;;;;;2.77;1.90;;;;;;;23.39;60.14;101267.31;4946617;28;97055;-48
2022/08/27 08:52:49;;;;;;;9.70;2.40;;;;;;;23.38;59.96;101277.03;4951017;28;100397;-49
2022/08/27 08:55:29;;;;;;;6.30;2.60;;;;;;;23.36;59.85;101276.88;4953085;28;100446;-48
2022/08/27 08:58:16;;;;;;;3.63;2.50;;;;;;;23.32;59.95;101270.88;4946824;28;97289;-53
2022/08/27 09:00:43;;;;;;;2.37;2.10;;;;;;;23.31;60.24;101271.41;4949793;28;96736;-47
2022/08/27 09:03:12;;;;;;;3.53;1.90;;;;;;;23.33;60.22;101277.22;4950147;28;97575;-50
2022/08/27 09:05:42;;;;;;;4.17;2.30;;;;;;;23.36;59.94;101276.88;4943773;28;97160;-47
2022/08/27 09:08:23;;;;;;;4.90;2.13;;;;;;;23.38;59.69;101284.72;4943342;28;97154;-48
2022/08/27 09:10:58;;;;;;;3.30;2.53;;;;;;;23.40;59.70;101282.84;4940882;28;97066;-48
2022/08/27 09:13:29;;;;;;;3.87;2.43;;;;;;;23.41;59.90;101284.34;4942650;28;97968;-49
2022/08/27 09:15:59;;;;;;;3.70;1.70;;;;;;;23.45;60.07;101284.69;4940229;28;97630;-47
2022/08/27 09:18:25;;;;;;;4.40;1.70;;;;;;;23.50;59.68;101286.53;4949974;28;96694;-51
2022/08/27 09:21:19;;;;;;;2.93;1.77;;;;;;;23.55;59.61;101284.84;4948929;28;97002;-48
2022/08/27 09:24:18;;;;;;;2.47;1.57;;;;;;;23.55;58.93;101288.41;4945425;28;101846;-51
2022/08/27 09:26:43;;;;;;;6.97;2.00;;;;;;;23.56;59.28;101289.16;4949988;28;102200;-50
2022/08/27 09:29:20;;;;;;;2.70;1.40;;;;;;;23.57;59.54;101285.00;4938119;28;96779;-48
2022/08/27 09:31:47;;;;;;;2.27;1.30;;;;;;;23.64;59.55;101284.22;4944116;28;103441;-50
2022/08/27 09:34:13;;;;;;;3.23;1.70;;;;;;;23.70;59.42;101288.31;4950318;28;97978;-48
2022/08/27 09:37:01;;;;;;;5.07;1.90;;;;;;;23.75;59.06;101284.56;4949463;28;97529;-48
2022/08/27 09:39:32;;;;;;;3.63;1.37;;;;;;;23.73;58.93;101284.38;4949895;28;96776;-49
2022/08/27 09:41:58;;;;;;;3.40;1.83;;;;;;;23.76;58.85;101274.06;4949542;28;96864;-47
2022/08/27 09:44:24;;;;;;;10.00;2.07;;;;;;;23.76;59.12;101291.66;4948776;28;96761;-49
2022/08/27 09:47:01;;;;;;;3.90;1.57;;;;;;;23.81;59.17;101282.28;4950777;28;97234;-49
2022/08/27 09:49:29;;;;;;;2.90;1.73;;;;;;;23.84;58.91;101275.53;4940535;28;96879;-51
2022/08/27 09:51:56;;;;;;;4.63;2.37;;;;;;;23.89;58.72;101281.50;4944243;28;97302;-48
2022/08/27 09:54:45;;;;;;;2.87;1.90;;;;;;;23.92;58.67;101269.84;4949385;28;97379;-50
2022/08/27 09:57:14;;;;;;;4.07;1.70;;;;;;;23.99;58.58;101283.09;4951384;28;101932;-47
2022/08/27 09:59:50;;;;;;;2.37;2.10;;;;;;;24.02;58.34;101275.59;4955501;28;97236;-46
2022/08/27 10:02:19;;;;;;;1.73;1.63;;;;;;;24.06;58.61;101282.34;4948017;28;97147;-47
2022/08/27 10:04:48;;;;;;;2.33;1.33;;;;;;;24.09;58.59;101284.00;4944779;28;101980;-48
2022/08/27 10:07:28;;;;;;;2.60;1.40;;;;;;;24.06;58.10;101278.78;4942868;28;98508;-49
2022/08/27 10:10:18;;;;;;;3.13;1.70;;;;;;;24.10;57.91;101276.31;4942103;28;97176;-52
2022/08/27 10:12:57;;;;;;;2.20;1.40;;;;;;;24.18;57.69;101285.47;4951973;28;97047;-48
2022/08/27 10:15:28;;;;;;;2.57;1.83;;;;;;;24.24;57.68;101277.53;4949772;28;100801;-49
2022/08/27 10:18:19;;;;;;;1.53;1.43;;;;;;;24.32;57.88;101278.22;4951852;28;97056;-49
2022/08/27 10:21:22;;;;;;;2.30;1.63;;;;;;;24.36;57.34;101278.56;4955109;28;96795;-48
2022/08/27 10:24:12;;;;;;;2.30;2.03;;;;;;;24.43;57.35;101283.41;4945514;28;97007;-48
2022/08/27 10:26:47;;;;;;;2.53;1.60;;;;;;;24.46;57.51;101287.88;4948710;28;103874;-48
2022/08/27 10:29:30;;;;;;;2.00;1.90;;;;;;;24.44;57.12;101284.91;4945436;28;101815;-48
2022/08/27 10:32:17;;;;;;;2.20;1.77;;;;;;;24.41;57.10;101288.84;4942633;28;96826;-48
2022/08/27 10:34:48;;;;;;;2.33;1.77;;;;;;;24.36;57.11;101284.94;4945600;28;96670;-48
2022/08/27 10:37:33;;;;;;;2.67;1.53;;;;;;;24.34;56.98;101295.28;4948876;28;102130;-48
2022/08/27 10:40:26;;;;;;;7.33;1.70;;;;;;;24.29;57.17;101293.44;4948132;28;101378;-48
2022/08/27 10:43:14;;;;;;;4.93;2.17;;;;;;;24.30;57.21;101290.06;4954976;28;96878;-50
2022/08/27 10:45:41;;;;;;;1.67;1.43;;;;;;;24.30;57.47;101290.06;4945802;28;96951;-47
2022/08/27 10:48:15;;;;;;;3.00;1.63;;;;;;;24.33;57.15;101285.34;4938763;28;97804;-48
2022/08/27 10:50:48;;;;;;;4.17;1.70;;;;;;;24.30;57.15;101292.13;4941114;28;97334;-48
2022/08/27 10:53:34;;;;;;;3.70;1.77;;;;;;;24.29;56.91;101290.63;4949233;28;96835;-47
2022/08/27 10:56:36;;;;;;;1.57;1.40;;;;;;;24.32;56.63;101289.47;4952096;28;97564;-49
2022/08/27 10:59:31;;;;;;;2.70;1.43;;;;;;;24.43;56.97;101277.75;4948140;28;100441;-48
2022/08/27 11:02:01;;;;;;;2.73;1.90;;;;;;;24.49;56.56;101281.09;4947191;28;100470;-53
2022/08/27 11:04:52;;;;;;;1.47;1.27;;;;;;;24.56;55.81;101280.28;4945422;28;97094;-48
2022/08/27 11:07:25;;;;;;;2.60;1.67;;;;;;;24.66;56.04;101272.69;4946005;28;96984;-48
2022/08/27 11:10:17;;;;;;;2.53;1.50;;;;;;;24.74;55.71;101278.25;4945035;28;97322;-48
2022/08/27 11:12:46;;;;;;;2.03;1.70;;;;;;;24.84;56.24;101276.28;4953655;28;100314;-48
2022/08/27 11:15:21;;;;;;;1.73;1.50;;;;;;;24.93;55.65;101275.66;4945543;28;96894;-51
2022/08/27 11:18:27;;;;;;;3.27;2.10;;;;;;;25.00;54.79;101274.81;4950894;28;97124;-49
2022/08/27 11:21:01;;;;;;;1.30;1.20;;;;;;;25.05;55.21;101274.56;4936805;28;103047;-52
2022/08/27 11:23:35;;;;;;;4.20;2.00;;;;;;;25.07;55.14;101283.22;4952741;28;101751;-50
2022/08/27 11:26:04;;;;;;;5.87;2.33;;;;;;;25.12;55.43;101278.63;4941395;28;97420;-51
2022/08/27 11:28:48;;;;;;;1.40;1.27;;;;;;;25.17;54.46;101275.56;4942312;28;97329;-49
2022/08/27 11:31:39;;;;;;;2.00;1.40;;;;;;;25.26;54.97;101277.72;4939939;28;102037;-48
2022/08/27 11:34:20;;;;;;;1.50;1.33;;;;;;;25.30;54.19;101278.06;4942308;28;102408;-48
2022/08/27 11:36:51;;;;;;;1.60;0.90;;;;;;;25.33;55.01;101275.41;4947142;28;97293;-48
2022/08/27 11:39:19;;;;;;;2.90;1.43;;;;;;;25.32;55.28;101285.91;4949921;28;97053;-49